createdAt,value
2023-02-06T00:02:25.901Z,99890.00
2023-02-06T00:06:27.348Z,99882.00
2023-02-06T00:10:28.520Z,99877.00
2023-02-06T00:14:29.707Z,99893.00
2023-02-06T00:18:31.401Z,99901.00
2023-02-06T00:22:33.685Z,99896.00
2023-02-06T00:26:35.015Z,99904.00
2023-02-06T00:30:36.658Z,99901.00
2023-02-06T00:34:37.853Z,99907.00
2023-02-06T00:38:39.275Z,99907.00
2023-02-06T00:42:40.425Z,99912.00
2023-02-06T00:46:41.759Z,99923.00
2023-02-06T00:50:45.014Z,99917.00
2023-02-06T00:54:46.316Z,99915.00
2023-02-06T00:58:47.548Z,99918.00
2023-02-06T01:02:48.854Z,99926.00
2023-02-06T01:06:50.039Z,99926.00
2023-02-06T01:10:51.276Z,99928.00
2023-02-06T01:14:52.621Z,99920.00
2023-02-06T01:18:53.744Z,99925.00
2023-02-06T01:22:54.892Z,99931.00
2023-02-06T01:26:56.009Z,99935.00
2023-02-06T01:30:57.254Z,99928.00
2023-02-06T01:34:58.222Z,99924.00
2023-02-06T01:38:59.327Z,99917.00
2023-02-06T01:43:01.529Z,99919.00
2023-02-06T01:47:02.758Z,99922.00
2023-02-06T01:51:06.964Z,99925.00
2023-02-06T01:55:08.132Z,99930.00
2023-02-06T01:59:09.272Z,99918.00
2023-02-06T02:03:10.917Z,99912.00
2023-02-06T02:07:18.746Z,99905.00
2023-02-06T02:11:23.402Z,99907.00
2023-02-06T02:15:34.244Z,99901.00
2023-02-06T02:19:55.819Z,99901.00
2023-02-06T02:24:09.612Z,99900.00
2023-02-06T02:28:17.334Z,99889.00
2023-02-06T02:32:49.466Z,99895.00
2023-02-06T02:37:26.237Z,99890.00
2023-02-06T02:41:31.201Z,99884.00
2023-02-06T02:45:41.834Z,99891.00
2023-02-06T02:49:45.337Z,99886.00
2023-02-06T02:53:46.640Z,99887.00
2023-02-06T02:57:54.034Z,99897.00
2023-02-06T03:02:01.638Z,99892.00
2023-02-06T03:06:06.444Z,99899.00
2023-02-06T03:10:23.249Z,99909.00
2023-02-06T03:14:33.946Z,99917.00
2023-02-06T03:18:47.577Z,99910.00
2023-02-06T03:22:50.505Z,99899.00
2023-02-06T03:26:55.315Z,99905.00
2023-02-06T03:30:58.966Z,99896.00
2023-02-06T03:35:06.677Z,99901.00
2023-02-06T03:39:07.969Z,99902.00
2023-02-06T03:43:12.634Z,99899.00
2023-02-06T03:47:15.836Z,99906.00
2023-02-06T03:51:26.667Z,99910.00
2023-02-06T03:55:27.748Z,99915.00
2023-02-06T03:59:30.086Z,99905.00
2023-02-06T04:03:31.630Z,99906.00
2023-02-06T04:07:34.886Z,99898.00
2023-02-06T04:11:35.831Z,99827.00
2023-02-06T04:15:37.240Z,99910.00
2023-02-06T04:19:39.178Z,99904.00
2023-02-06T04:23:40.123Z,99909.00
2023-02-06T04:27:41.053Z,99905.00
2023-02-06T04:31:42.131Z,99916.00
2023-02-06T04:35:43.051Z,99922.00
2023-02-06T04:39:44.198Z,99927.00
2023-02-06T04:43:45.261Z,99931.00
2023-02-06T04:47:48.228Z,99935.00
2023-02-06T04:51:49.089Z,99934.00
2023-02-06T04:55:50.024Z,99931.00
2023-02-06T04:59:51.011Z,99925.00
2023-02-06T05:03:52.101Z,99916.00
2023-02-06T05:07:55.453Z,99916.00
2023-02-06T05:11:56.449Z,99925.00
2023-02-06T05:15:59.327Z,99930.00
2023-02-06T05:20:00.376Z,99914.00
2023-02-06T05:24:01.350Z,99919.00
2023-02-06T05:28:05.313Z,99917.00
2023-02-06T05:32:06.707Z,99919.00
2023-02-06T05:36:08.179Z,99921.00
2023-02-06T05:40:10.440Z,99912.00
2023-02-06T05:44:11.650Z,99916.00
2023-02-06T05:48:12.948Z,99920.00
2023-02-06T05:52:14.701Z,99914.00
2023-02-06T05:56:15.727Z,99914.00
2023-02-06T06:00:17.124Z,99903.00
2023-02-06T06:04:18.240Z,99907.00
2023-02-06T06:08:19.562Z,99908.00
2023-02-06T06:12:20.636Z,99904.00
2023-02-06T06:16:21.679Z,99916.00
2023-02-06T06:20:23.115Z,99910.00
2023-02-06T06:24:25.091Z,99916.00
2023-02-06T06:28:26.382Z,99903.00
2023-02-06T06:32:27.636Z,99912.00
2023-02-06T06:36:28.735Z,99917.00
2023-02-06T06:40:29.690Z,99916.00
2023-02-06T06:44:31.218Z,99916.00
2023-02-06T06:48:32.288Z,99906.00
2023-02-06T06:52:33.611Z,99903.00
2023-02-06T06:56:34.685Z,99903.00
2023-02-06T07:00:36.737Z,99908.00
2023-02-06T07:04:38.872Z,99912.00
2023-02-06T07:08:43.094Z,99903.00
2023-02-06T07:12:44.249Z,99913.00
2023-02-06T07:16:45.247Z,99921.00
2023-02-06T07:20:46.357Z,99923.00
2023-02-06T07:24:47.898Z,99922.00
2023-02-06T07:28:49.400Z,99916.00
2023-02-06T07:32:50.379Z,99920.00
2023-02-06T07:36:51.476Z,99916.00
2023-02-06T07:40:52.441Z,99922.00
2023-02-06T07:44:53.480Z,99916.00
2023-02-06T07:48:54.447Z,99907.00
2023-02-06T07:52:55.576Z,99909.00
2023-02-06T07:56:57.137Z,99906.00
2023-02-06T08:01:04.475Z,99908.00
2023-02-06T08:05:06.005Z,99916.00
2023-02-06T08:09:07.115Z,99916.00
2023-02-06T08:13:09.198Z,99940.00
2023-02-06T08:17:11.039Z,99934.00
2023-02-06T08:21:15.545Z,99938.00
2023-02-06T08:25:17.046Z,99929.00
2023-02-06T08:29:18.248Z,99925.00
2023-02-06T08:33:19.380Z,99932.00
2023-02-06T08:37:21.877Z,99937.00
2023-02-06T08:41:25.976Z,99937.00
2023-02-06T08:45:27.092Z,99929.00
2023-02-06T08:49:28.437Z,99927.00
2023-02-06T08:53:29.517Z,99925.00
2023-02-06T08:57:30.697Z,99932.00
2023-02-06T09:01:34.773Z,99931.00
2023-02-06T09:05:36.269Z,99921.00
2023-02-06T09:09:37.918Z,99914.00
2023-02-06T09:13:39.053Z,99925.00
2023-02-06T09:17:40.067Z,99926.00
2023-02-06T09:21:41.492Z,99929.00
2023-02-06T09:25:43.968Z,99946.00
2023-02-06T09:29:46.217Z,99940.00
2023-02-06T09:33:47.333Z,99940.00
2023-02-06T09:37:48.501Z,99935.00
2023-02-06T09:41:54.503Z,99928.00
2023-02-06T09:45:59.483Z,99932.00
2023-02-06T09:50:07.333Z,99928.00
2023-02-06T09:54:28.821Z,99927.00
2023-02-06T09:58:36.423Z,99927.00
2023-02-06T10:03:06.695Z,99915.00
2023-02-06T10:07:18.176Z,99911.00
2023-02-06T10:11:44.733Z,99909.00
2023-02-06T10:15:49.551Z,99888.00
2023-02-06T10:19:54.490Z,99887.00
2023-02-06T10:24:17.641Z,99888.00
2023-02-06T10:28:30.194Z,99882.00
2023-02-06T10:32:53.099Z,99877.00
2023-02-06T10:37:10.320Z,99864.00
2023-02-06T10:41:24.175Z,99851.00
2023-02-06T10:45:46.589Z,99857.00
2023-02-06T10:49:51.607Z,99849.00
2023-02-06T10:54:05.752Z,99845.00
2023-02-06T10:58:10.565Z,99850.00
2023-02-06T11:02:33.494Z,99851.00
2023-02-06T11:06:35.114Z,99838.00
2023-02-06T11:10:36.516Z,99826.00
2023-02-06T11:14:40.049Z,99819.00
2023-02-06T11:18:44.722Z,99820.00
2023-02-06T11:22:52.693Z,99810.00
2023-02-06T11:26:55.319Z,99817.00
2023-02-06T11:30:59.391Z,99790.00
2023-02-06T11:35:04.385Z,99788.00
2023-02-06T11:39:29.535Z,99787.00
2023-02-06T11:43:48.428Z,99790.00
2023-02-06T11:47:49.226Z,99794.00
2023-02-06T11:51:56.034Z,99783.00
2023-02-06T11:56:20.034Z,99773.00
2023-02-06T12:00:22.917Z,99784.00
2023-02-06T12:04:34.166Z,99773.00
2023-02-06T12:08:53.373Z,99778.00
2023-02-06T12:13:10.078Z,99771.00
2023-02-06T12:17:29.996Z,99773.00
2023-02-06T12:21:43.992Z,99648.00
2023-02-06T12:25:51.961Z,99767.00
2023-02-06T12:30:18.019Z,99758.00
2023-02-06T12:34:22.882Z,99746.00
2023-02-06T12:38:27.694Z,99766.00
2023-02-06T12:42:32.647Z,99749.00
2023-02-06T12:46:33.858Z,99751.00
2023-02-06T12:51:02.831Z,99743.00
2023-02-06T12:55:16.458Z,99737.00
2023-02-06T12:59:57.662Z,99728.00
2023-02-06T13:03:57.804Z,99731.00
2023-02-06T13:08:05.122Z,99716.00
2023-02-06T13:12:09.721Z,99731.00
2023-02-06T13:16:11.145Z,99739.00
2023-02-06T13:20:15.243Z,99725.00
2023-02-06T13:24:19.020Z,99748.00
2023-02-06T13:28:26.871Z,99735.00
2023-02-06T13:32:41.290Z,99734.00
2023-02-06T13:36:47.991Z,99743.00
2023-02-06T13:41:15.622Z,99743.00
2023-02-06T13:45:38.997Z,99738.00
2023-02-06T13:50:11.123Z,99740.00
2023-02-06T13:54:34.373Z,99733.00
2023-02-06T13:58:42.091Z,99727.00
2023-02-06T14:02:53.266Z,99741.00
2023-02-06T14:07:07.577Z,99748.00
2023-02-06T14:11:29.935Z,99744.00
2023-02-06T14:15:34.189Z,99739.00
2023-02-06T14:19:48.134Z,99733.00
2023-02-06T14:24:08.309Z,99734.00
2023-02-06T14:28:28.088Z,99733.00
2023-02-06T14:32:39.020Z,99736.00
2023-02-06T14:37:02.320Z,99734.00
2023-02-06T14:41:03.707Z,99733.00
2023-02-06T14:45:26.474Z,99731.00
2023-02-06T14:49:34.467Z,99742.00
2023-02-06T14:53:37.524Z,99724.00
2023-02-06T14:57:42.371Z,99711.00
2023-02-06T15:01:46.758Z,99720.00
2023-02-06T15:06:00.819Z,99719.00
2023-02-06T15:10:08.545Z,99722.00
2023-02-06T15:14:16.165Z,99710.00
2023-02-06T15:18:19.839Z,99709.00
2023-02-06T15:22:25.017Z,99709.00
2023-02-06T15:26:41.975Z,99706.00
2023-02-06T15:30:43.236Z,99709.00
2023-02-06T15:34:45.925Z,99716.00
2023-02-06T15:38:47.524Z,99714.00
2023-02-06T15:42:49.816Z,99703.00
2023-02-06T15:46:52.157Z,99715.00
2023-02-06T15:50:59.662Z,99708.00
2023-02-06T15:55:00.779Z,99721.00
2023-02-06T15:59:05.660Z,99710.00
2023-02-06T16:03:10.390Z,99721.00
2023-02-06T16:07:18.481Z,99716.00
2023-02-06T16:11:38.866Z,99732.00
2023-02-06T16:15:41.165Z,99733.00
2023-02-06T16:19:55.369Z,99738.00
2023-02-06T16:24:06.175Z,99748.00
2023-02-06T16:28:22.376Z,99740.00
2023-02-06T16:32:30.984Z,99743.00
2023-02-06T16:36:32.887Z,99755.00
2023-02-06T16:40:34.102Z,99759.00
2023-02-06T16:44:44.816Z,99755.00
2023-02-06T16:48:39.407Z,99756.00
2023-02-06T16:52:50.242Z,99752.00
2023-02-06T16:56:52.748Z,99764.00
2023-02-06T17:00:53.950Z,99766.00
2023-02-06T17:04:55.707Z,99763.00
2023-02-06T17:09:01.518Z,99761.00
2023-02-06T17:13:03.003Z,99761.00
2023-02-06T17:17:04.062Z,99754.00
2023-02-06T17:21:05.833Z,99751.00
2023-02-06T17:25:07.467Z,99766.00
2023-02-06T17:29:12.718Z,99758.00
2023-02-06T17:33:14.027Z,99753.00
2023-02-06T17:37:17.338Z,99752.00
2023-02-06T17:41:19.325Z,99754.00
2023-02-06T17:45:20.783Z,99743.00
2023-02-06T17:49:22.065Z,99755.00
2023-02-06T17:53:23.277Z,99750.00
2023-02-06T17:57:24.798Z,99755.00
2023-02-06T18:01:26.246Z,99760.00
2023-02-06T18:05:27.766Z,99765.00
2023-02-06T18:09:29.344Z,99759.00
2023-02-06T18:13:30.329Z,99766.00
2023-02-06T18:17:31.343Z,99771.00
2023-02-06T18:21:32.740Z,99775.00
2023-02-06T18:25:37.926Z,99774.00
2023-02-06T18:29:49.448Z,99781.00
2023-02-06T18:33:44.693Z,99775.00
2023-02-06T18:37:46.885Z,99773.00
2023-02-06T18:42:06.674Z,99770.00
2023-02-06T18:46:07.967Z,99771.00
2023-02-06T18:50:11.642Z,99774.00
2023-02-06T18:54:13.267Z,99773.00
2023-02-06T18:58:14.285Z,99769.00
2023-02-06T19:02:16.460Z,99766.00
2023-02-06T19:06:21.144Z,99774.00
2023-02-06T19:10:23.678Z,99769.00
2023-02-06T19:14:24.979Z,99768.00
2023-02-06T19:18:37.552Z,99770.00
2023-02-06T19:22:29.517Z,99765.00
2023-02-06T19:26:31.127Z,99774.00
2023-02-06T19:30:32.358Z,99780.00
2023-02-06T19:34:35.423Z,99786.00
2023-02-06T19:38:36.760Z,99792.00
2023-02-06T19:42:38.282Z,99805.00
2023-02-06T19:46:39.788Z,99803.00
2023-02-06T19:50:41.466Z,99826.00
2023-02-06T19:54:42.640Z,99846.00
2023-02-06T19:58:45.044Z,99844.00
2023-02-06T20:02:46.677Z,99839.00
2023-02-06T20:06:50.536Z,99855.00
2023-02-06T20:10:53.212Z,99869.00
2023-02-06T20:14:55.621Z,99855.00
2023-02-06T20:18:57.616Z,99866.00
2023-02-06T20:22:59.017Z,99855.00
2023-02-06T20:27:02.257Z,99842.00
2023-02-06T20:31:10.569Z,99853.00
2023-02-06T20:35:12.006Z,99847.00
2023-02-06T20:39:14.113Z,99860.00
2023-02-06T20:43:15.730Z,99847.00
2023-02-06T20:47:16.957Z,99878.00
2023-02-06T20:51:18.041Z,99867.00
2023-02-06T20:55:19.208Z,99845.00
2023-02-06T20:59:21.781Z,99846.00
2023-02-06T21:03:22.991Z,99852.00
2023-02-06T21:07:24.110Z,99849.00
2023-02-06T21:11:30.678Z,99847.00
2023-02-06T21:15:32.647Z,99845.00
2023-02-06T21:19:34.260Z,99850.00
2023-02-06T21:23:36.939Z,99838.00
2023-02-06T21:27:37.914Z,99828.00
2023-02-06T21:31:39.573Z,99825.00
2023-02-06T21:35:51.964Z,99827.00
2023-02-06T21:39:52.939Z,99837.00
2023-02-06T21:43:54.173Z,99855.00
2023-02-06T21:47:55.491Z,99855.00
2023-02-06T21:51:59.493Z,99860.00
2023-02-06T21:56:06.156Z,99841.00
2023-02-06T22:00:09.232Z,99852.00
2023-02-06T22:04:11.231Z,99845.00
2023-02-06T22:08:12.590Z,99845.00
2023-02-06T22:12:13.749Z,99846.00
2023-02-06T22:16:17.693Z,99847.00
2023-02-06T22:20:19.432Z,99869.00
2023-02-06T22:24:20.686Z,99860.00
2023-02-06T22:28:21.722Z,99860.00
2023-02-06T22:32:22.866Z,99857.00
2023-02-06T22:36:26.625Z,99861.00
2023-02-06T22:40:27.962Z,99853.00
2023-02-06T22:44:29.384Z,99858.00
2023-02-06T22:48:30.699Z,99857.00
2023-02-06T22:52:51.062Z,99861.00
2023-02-06T22:56:52.128Z,99871.00
2023-02-06T23:00:57.196Z,99857.00
2023-02-06T23:04:58.299Z,99863.00
2023-02-06T23:09:00.949Z,99866.00
2023-02-06T23:13:01.890Z,99874.00
2023-02-06T23:17:03.337Z,99869.00
2023-02-06T23:21:08.090Z,99873.00
2023-02-06T23:25:10.462Z,99869.00
2023-02-06T23:29:17.282Z,99875.00
2023-02-06T23:33:18.598Z,99875.00
2023-02-06T23:37:19.617Z,99876.00
2023-02-06T23:41:23.560Z,99885.00
2023-02-06T23:45:24.931Z,99891.00
2023-02-06T23:49:25.879Z,99874.00
2023-02-06T23:53:27.245Z,99853.00
2023-02-06T23:57:28.229Z,99845.00
